Stations météo

réclame
Mon MeteoGroup
Friedrichshafen, Allemagne (10935): Température de l'air & dewpoint: 14.01.2018 00:00:00 - 20.01.2018 00:00:00 (CET)Friedrichshafen, Allemagne (10935): Vitesse du vent: 14.01.2018 00:00:00 - 20.01.2018 00:00:00 (CET)Friedrichshafen, Allemagne (10935): Direction du vent: 14.01.2018 00:00:00 - 20.01.2018 00:00:00 (CET)Friedrichshafen, Allemagne (10935): visibility: 14.01.2018 00:00:00 - 20.01.2018 00:00:00 (CET)
Date & Time tt [°C] td [°C] ff [km/h] ff [knt] dd vv [km]
20.01.2018 00:00:00 3,0 1,0 22 12 WSW 10
19.01.2018 23:00:00 3,0 1,0 18 10 WSW 10
19.01.2018 22:00:00 4,0 1,0 22 12 WSW 10
19.01.2018 21:00:00 3,0 2,0 8 4 SSE 10
19.01.2018 20:00:00 3,0 1,0 8 4 S 10
19.01.2018 19:00:00 3,0 2,0 11 6 S 0,9
19.01.2018 18:00:00 3,0 1,0 11 6 S 10
19.01.2018 17:00:00 4,0 1,0 11 6 SSW 10
19.01.2018 16:00:00 5,0 -1,0 21 11 WSW 10
19.01.2018 15:00:00 5,0 -1,0 21 11 WSW 10
19.01.2018 14:00:00 6,0 0,0 24 13 WSW 10
19.01.2018 13:00:00 6,0 1,0 24 13 WSW 10
19.01.2018 12:00:00 5,0 1,0 22 12 WSW 10
19.01.2018 11:00:00 4,0 1,0 18 10 SW 10
19.01.2018 10:00:00 4,0 2,0 8 4 W 10
19.01.2018 09:00:00 4,0 2,0 21 11 WSW 10
19.01.2018 08:00:00 4,0 2,0 21 11 WSW 10
19.01.2018 07:00:00 4,0 1,0 21 11 W 10
19.01.2018 06:00:00 5,0 4,0 21 11 WSW 10
19.01.2018 05:00:00 5,0 4,0 31 17 WSW 10
19.01.2018 04:00:00 5,0 4,0 29 16 WSW 10
19.01.2018 03:00:00 5,0 4,0 15 8 WSW 10
19.01.2018 02:00:00 5,0 4,0 8 4 W 10
19.01.2018 01:00:00 5,0 4,0 13 7 W 10
19.01.2018 00:00:00 6,0 5,0 15 8 W 10
18.01.2018 23:00:00 7,0 4,0 16 9 W 10
18.01.2018 22:00:00 7,0 5,0 18 10 W 10
18.01.2018 21:00:00 9,0 3,0 31 17 WSW 10
18.01.2018 20:00:00 8,0 3,0 37 20 WSW 10
18.01.2018 19:00:00 8,0 3,0 39 21 WSW 10
18.01.2018 18:00:00 8,0 3,0 34 18 WSW 10
18.01.2018 17:00:00 9,0 3,0 29 16 WSW 10
18.01.2018 16:00:00 8,0 4,0 39 21 WSW 10
18.01.2018 15:00:00 8,0 3,0 48 26 WSW 10
18.01.2018 14:00:00 - - - - - -
18.01.2018 13:00:00 6,0 3,0 35 19 SW 10
18.01.2018 12:00:00 5,0 3,0 37 20 SW 10
18.01.2018 11:00:00 5,0 2,0 42 23 SW 10
18.01.2018 10:00:00 4,0 2,0 21 11 SW 10
18.01.2018 09:00:00 3,0 1,0 29 16 SW 10
18.01.2018 08:00:00 3,0 0,0 18 10 SSW 10
18.01.2018 07:00:00 3,0 0,0 28 15 SW 10
18.01.2018 06:00:00 3,0 0,0 31 17 SW 10
18.01.2018 05:00:00 2,0 0,0 16 9 SW 10
18.01.2018 04:00:00 2,0 0,0 26 14 WSW 10
18.01.2018 03:00:00 2,0 0,0 24 13 WSW 10
18.01.2018 02:00:00 2,0 -1,0 28 15 WSW 10
18.01.2018 01:00:00 2,0 0,0 24 13 WSW 10
18.01.2018 00:00:00 3,0 -1,0 26 14 WSW 10
17.01.2018 23:00:00 1,0 0,0 18 10 WSW 10
17.01.2018 22:00:00 2,0 -1,0 24 13 WSW 10
17.01.2018 21:00:00 2,0 -1,0 26 14 WSW 10
17.01.2018 20:00:00 2,0 -1,0 29 16 WSW 10
17.01.2018 19:00:00 2,0 -1,0 28 15 WSW 10
17.01.2018 18:00:00 1,0 -1,0 28 15 WSW 10
17.01.2018 17:00:00 3,0 -2,0 29 16 WSW 10
17.01.2018 16:00:00 3,0 -2,0 34 18 WSW 10
17.01.2018 15:00:00 2,0 -2,0 21 11 WSW 10
17.01.2018 14:00:00 1,0 0,0 21 11 WSW 10
17.01.2018 13:00:00 0,0 -1,0 21 11 W 10
17.01.2018 12:00:00 2,0 0,0 31 17 WSW 10
17.01.2018 11:00:00 1,0 0,0 16 9 W 3,5
17.01.2018 10:00:00 0,0 -1,0 18 10 W 0,6
17.01.2018 09:00:00 - - - - - -
17.01.2018 08:00:00 4,0 -1,0 34 18 WSW 10
17.01.2018 07:00:00 3,0 0,0 34 18 WSW 10
17.01.2018 06:00:00 2,0 1,0 31 17 WSW 10
17.01.2018 05:00:00 0,0 0,0 15 8 W 2,1
17.01.2018 04:00:00 4,0 2,0 31 17 WSW 10
17.01.2018 03:00:00 5,0 2,0 29 16 WSW 10
17.01.2018 02:00:00 4,0 2,0 21 11 SW 10
17.01.2018 01:00:00 4,0 2,0 24 13 SW 10
17.01.2018 00:00:00 5,0 3,0 31 17 WSW 10
16.01.2018 23:00:00 5,0 3,0 13 7 WSW 10
16.01.2018 22:00:00 6,0 3,0 24 13 W 10
16.01.2018 21:00:00 5,0 4,0 8 4 SSW 10
16.01.2018 20:00:00 5,0 3,0 18 10 WSW 10
16.01.2018 19:00:00 5,0 4,0 22 12 WSW 6
16.01.2018 18:00:00 6,0 4,0 24 13 WSW 10
16.01.2018 17:00:00 6,0 4,0 28 15 WSW 10
16.01.2018 16:00:00 5,0 4,0 21 11 W 6
16.01.2018 15:00:00 9,0 4,0 31 17 WSW 10
16.01.2018 14:00:00 8,0 5,0 34 18 WSW 10
16.01.2018 13:00:00 8,0 4,0 42 23 WSW 10
16.01.2018 12:00:00 8,0 4,0 35 19 WSW 10
16.01.2018 11:00:00 9,0 3,0 34 18 WSW 10
16.01.2018 10:00:00 8,0 3,0 37 20 WSW 10
16.01.2018 09:00:00 7,0 4,0 18 10 WSW 10
16.01.2018 08:00:00 7,0 3,0 18 10 WSW 10
16.01.2018 07:00:00 6,0 3,0 15 8 SW 10
16.01.2018 06:00:00 6,0 3,0 24 13 SW 10
16.01.2018 05:00:00 6,0 2,0 22 12 SW 10
16.01.2018 04:00:00 4,0 2,0 8 4 SSW 10
16.01.2018 03:00:00 5,0 2,0 13 7 SW 10
16.01.2018 02:00:00 3,0 2,0 4 2 - 10
16.01.2018 01:00:00 3,0 2,0 8 4 W 10
16.01.2018 00:00:00 4,0 2,0 9 5 W 10
15.01.2018 23:00:00 5,0 1,0 15 8 W 10
15.01.2018 22:00:00 2,0 0,0 5 3 WSW 10
15.01.2018 21:00:00 1,0 -1,0 0 0 N 7
15.01.2018 20:00:00 0,0 -1,0 4 2 - 5
15.01.2018 19:00:00 0,0 -1,0 4 2 - 6
15.01.2018 18:00:00 0,0 -1,0 4 2 - 7
15.01.2018 17:00:00 1,0 -1,0 2 1 - 10
15.01.2018 16:00:00 1,0 -1,0 9 5 SSW 8
15.01.2018 15:00:00 1,0 -1,0 8 4 SSW 8
15.01.2018 14:00:00 1,0 -2,0 4 2 SW 10
15.01.2018 13:00:00 1,0 -2,0 5 3 - 9
15.01.2018 12:00:00 1,0 -2,0 4 2 - 8
15.01.2018 11:00:00 0,0 -2,0 5 3 - 8
15.01.2018 10:00:00 0,0 -2,0 8 4 WSW 7
15.01.2018 09:00:00 0,0 -2,0 4 2 - 7
15.01.2018 08:00:00 0,0 -2,0 4 2 - 7
15.01.2018 07:00:00 0,0 -2,0 5 3 - 8
15.01.2018 06:00:00 0,0 -2,0 5 3 - 10
15.01.2018 05:00:00 0,0 -2,0 4 2 - 7
15.01.2018 04:00:00 0,0 -2,0 0 0 N 8
15.01.2018 03:00:00 0,0 -2,0 0 0 N 9
15.01.2018 02:00:00 -1,0 -2,0 5 3 E 8
15.01.2018 01:00:00 -1,0 -3,0 5 3 ENE 10
15.01.2018 00:00:00 -1,0 -2,0 2 1 - 10
14.01.2018 23:00:00 0,0 -2,0 0 0 N 10
14.01.2018 22:00:00 1,0 -2,0 5 3 - 10
14.01.2018 21:00:00 1,0 -3,0 0 0 N 10
14.01.2018 20:00:00 1,0 -2,0 0 0 N 10
14.01.2018 19:00:00 1,0 -2,0 2 1 - 10
14.01.2018 18:00:00 1,0 -2,0 2 1 N 10
14.01.2018 17:00:00 1,0 -2,0 2 1 - 10
14.01.2018 16:00:00 2,0 -2,0 2 1 - 10
14.01.2018 15:00:00 2,0 -2,0 4 2 - 10
14.01.2018 14:00:00 1,0 -1,0 5 3 ENE 9
14.01.2018 13:00:00 1,0 -1,0 5 3 - 8
14.01.2018 12:00:00 1,0 -1,0 4 2 - 7
14.01.2018 11:00:00 0,0 -1,0 4 2 E 7
14.01.2018 10:00:00 -1,0 -2,0 4 2 NE 6
14.01.2018 09:00:00 -2,0 -2,0 4 2 - 6
14.01.2018 08:00:00 -2,0 -3,0 5 3 - 5
14.01.2018 07:00:00 -3,0 -3,0 4 2 - 6
14.01.2018 06:00:00 -4,0 -4,0 4 2 - 7
14.01.2018 05:00:00 -4,0 -5,0 4 2 N 5
14.01.2018 04:00:00 -4,0 -5,0 5 3 NE 5
14.01.2018 03:00:00 -3,0 -4,0 4 2 NNE 4,4
14.01.2018 02:00:00 -4,0 -4,0 8 4 NE 5
14.01.2018 01:00:00 -3,0 -4,0 5 3 NE 4,8
14.01.2018 00:00:00 -3,0 -3,0 5 3 NE 5

tt = Température de l'air
td = dewpoint
ff = Vitesse du vent
dd = Direction du vent
vv = visibility

stations d'obs. à proximité